sensor_id;sensor_type;location;lat;lon;timestamp;P1;durP1;ratioP1;P2;durP2;ratioP2
57571;SDS011;44459;43.522;24.470;2023-11-18T00:02:19;5.70;;;2.53;;
57571;SDS011;44459;43.522;24.470;2023-11-18T00:04:44;10.73;;;4.78;;
57571;SDS011;44459;43.522;24.470;2023-11-18T00:07:10;5.32;;;3.50;;
57571;SDS011;44459;43.522;24.470;2023-11-18T00:09:35;6.05;;;3.35;;
57571;SDS011;44459;43.522;24.470;2023-11-18T00:12:01;2.03;;;1.75;;
57571;SDS011;44459;43.522;24.470;2023-11-18T00:14:29;1.60;;;1.27;;
57571;SDS011;44459;43.522;24.470;2023-11-18T00:16:54;1.52;;;1.42;;
57571;SDS011;44459;43.522;24.470;2023-11-18T00:19:20;6.65;;;3.35;;
57571;SDS011;44459;43.522;24.470;2023-11-18T00:21:45;0.38;;;0.38;;
57571;SDS011;44459;43.522;24.470;2023-11-18T00:24:11;0.45;;;0.43;;
57571;SDS011;44459;43.522;24.470;2023-11-18T00:26:36;0.65;;;0.65;;
57571;SDS011;44459;43.522;24.470;2023-11-18T00:29:02;1.10;;;0.85;;
57571;SDS011;44459;43.522;24.470;2023-11-18T00:31:27;1.27;;;0.68;;
57571;SDS011;44459;43.522;24.470;2023-11-18T00:33:53;1.80;;;1.70;;
57571;SDS011;44459;43.522;24.470;2023-11-18T00:36:18;0.28;;;0.28;;
57571;SDS011;44459;43.522;24.470;2023-11-18T00:38:44;7.40;;;4.63;;
57571;SDS011;44459;43.522;24.470;2023-11-18T00:41:09;12.18;;;5.60;;
57571;SDS011;44459;43.522;24.470;2023-11-18T00:43:35;6.95;;;2.47;;
57571;SDS011;44459;43.522;24.470;2023-11-18T00:46:01;5.40;;;3.17;;
57571;SDS011;44459;43.522;24.470;2023-11-18T00:48:28;5.53;;;3.42;;
57571;SDS011;44459;43.522;24.470;2023-11-18T00:50:53;3.10;;;1.95;;
57571;SDS011;44459;43.522;24.470;2023-11-18T00:53:19;10.23;;;6.25;;
57571;SDS011;44459;43.522;24.470;2023-11-18T00:55:44;5.65;;;3.63;;
57571;SDS011;44459;43.522;24.470;2023-11-18T00:58:10;3.83;;;2.15;;
57571;SDS011;44459;43.522;24.470;2023-11-18T01:00:35;1.30;;;1.13;;
57571;SDS011;44459;43.522;24.470;2023-11-18T01:03:01;3.92;;;2.53;;
57571;SDS011;44459;43.522;24.470;2023-11-18T01:05:27;2.85;;;2.22;;
57571;SDS011;44459;43.522;24.470;2023-11-18T01:07:52;3.10;;;2.20;;
57571;SDS011;44459;43.522;24.470;2023-11-18T01:10:18;6.05;;;3.45;;
57571;SDS011;44459;43.522;24.470;2023-11-18T01:12:44;6.10;;;3.20;;
57571;SDS011;44459;43.522;24.470;2023-11-18T01:15:10;1.35;;;1.08;;
57571;SDS011;44459;43.522;24.470;2023-11-18T01:17:36;2.90;;;1.95;;
57571;SDS011;44459;43.522;24.470;2023-11-18T01:20:01;2.92;;;1.67;;
57571;SDS011;44459;43.522;24.470;2023-11-18T01:22:33;3.85;;;1.92;;
57571;SDS011;44459;43.522;24.470;2023-11-18T01:24:59;0.68;;;0.57;;
57571;SDS011;44459;43.522;24.470;2023-11-18T01:27:25;2.67;;;2.03;;
57571;SDS011;44459;43.522;24.470;2023-11-18T01:29:50;1.23;;;1.15;;
57571;SDS011;44459;43.522;24.470;2023-11-18T01:32:16;3.72;;;2.08;;
57571;SDS011;44459;43.522;24.470;2023-11-18T01:34:42;4.78;;;2.45;;
57571;SDS011;44459;43.522;24.470;2023-11-18T01:37:09;1.85;;;1.42;;
57571;SDS011;44459;43.522;24.470;2023-11-18T01:39:35;1.83;;;0.93;;
57571;SDS011;44459;43.522;24.470;2023-11-18T01:42:01;3.67;;;0.93;;
57571;SDS011;44459;43.522;24.470;2023-11-18T01:44:28;2.75;;;0.95;;
57571;SDS011;44459;43.522;24.470;2023-11-18T01:46:57;2.90;;;1.25;;
57571;SDS011;44459;43.522;24.470;2023-11-18T01:49:23;0.73;;;0.73;;
57571;SDS011;44459;43.522;24.470;2023-11-18T01:51:52;3.88;;;1.30;;
57571;SDS011;44459;43.522;24.470;2023-11-18T01:54:19;2.42;;;1.23;;
57571;SDS011;44459;43.522;24.470;2023-11-18T01:56:47;0.77;;;0.75;;
57571;SDS011;44459;43.522;24.470;2023-11-18T01:59:14;2.25;;;1.10;;
57571;SDS011;44459;43.522;24.470;2023-11-18T02:01:49;0.32;;;0.32;;
57571;SDS011;44459;43.522;24.470;2023-11-18T02:04:17;1.55;;;1.38;;
57571;SDS011;44459;43.522;24.470;2023-11-18T02:06:44;0.60;;;0.40;;
57571;SDS011;44459;43.522;24.470;2023-11-18T02:09:13;2.25;;;1.13;;
57571;SDS011;44459;43.522;24.470;2023-11-18T02:11:46;1.67;;;0.85;;
57571;SDS011;44459;43.522;24.470;2023-11-18T02:14:21;0.52;;;0.52;;
57571;SDS011;44459;43.522;24.470;2023-11-18T02:16:51;0.20;;;0.20;;
57571;SDS011;44459;43.522;24.470;2023-11-18T02:19:21;0.75;;;0.57;;
57571;SDS011;44459;43.522;24.470;2023-11-18T02:21:49;0.52;;;0.40;;
57571;SDS011;44459;43.522;24.470;2023-11-18T02:24:28;0.10;;;0.10;;
57571;SDS011;44459;43.522;24.470;2023-11-18T02:27:06;0.50;;;0.45;;
57571;SDS011;44459;43.522;24.470;2023-11-18T02:29:36;0.95;;;0.80;;
57571;SDS011;44459;43.522;24.470;2023-11-18T02:32:06;0.93;;;0.70;;
57571;SDS011;44459;43.522;24.470;2023-11-18T02:35:02;0.25;;;0.25;;
57571;SDS011;44459;43.522;24.470;2023-11-18T02:37:42;0.60;;;0.50;;
57571;SDS011;44459;43.522;24.470;2023-11-18T02:40:33;1.50;;;0.95;;
57571;SDS011;44459;43.522;24.470;2023-11-18T02:43:00;0.82;;;0.82;;
57571;SDS011;44459;43.522;24.470;2023-11-18T02:47:57;0.65;;;0.65;;
57571;SDS011;44459;43.522;24.470;2023-11-18T02:50:26;0.15;;;0.15;;
57571;SDS011;44459;43.522;24.470;2023-11-18T02:55:18;0.35;;;0.30;;
57571;SDS011;44459;43.522;24.470;2023-11-18T02:57:43;0.20;;;0.20;;
57571;SDS011;44459;43.522;24.470;2023-11-18T03:00:09;0.60;;;0.60;;
57571;SDS011;44459;43.522;24.470;2023-11-18T03:02:42;0.28;;;0.28;;
57571;SDS011;44459;43.522;24.470;2023-11-18T03:05:07;4.65;;;0.40;;
57571;SDS011;44459;43.522;24.470;2023-11-18T03:07:36;0.17;;;0.17;;
57571;SDS011;44459;43.522;24.470;2023-11-18T03:15:01;1.58;;;0.75;;
57571;SDS011;44459;43.522;24.470;2023-11-18T03:17:27;0.20;;;0.20;;
57571;SDS011;44459;43.522;24.470;2023-11-18T03:19:53;0.13;;;0.13;;
57571;SDS011;44459;43.522;24.470;2023-11-18T03:22:19;2.47;;;0.20;;
57571;SDS011;44459;43.522;24.470;2023-11-18T03:24:44;0.28;;;0.28;;
57571;SDS011;44459;43.522;24.470;2023-11-18T03:27:09;0.20;;;0.20;;
57571;SDS011;44459;43.522;24.470;2023-11-18T03:29:35;0.20;;;0.20;;
57571;SDS011;44459;43.522;24.470;2023-11-18T03:32:01;0.17;;;0.17;;
57571;SDS011;44459;43.522;24.470;2023-11-18T03:34:26;3.80;;;0.30;;
57571;SDS011;44459;43.522;24.470;2023-11-18T03:36:52;0.10;;;0.10;;
57571;SDS011;44459;43.522;24.470;2023-11-18T03:39:17;0.17;;;0.17;;
57571;SDS011;44459;43.522;24.470;2023-11-18T03:41:43;0.30;;;0.30;;
57571;SDS011;44459;43.522;24.470;2023-11-18T03:44:12;0.30;;;0.20;;
57571;SDS011;44459;43.522;24.470;2023-11-18T03:46:37;1.00;;;0.20;;
57571;SDS011;44459;43.522;24.470;2023-11-18T03:49:03;0.20;;;0.20;;
57571;SDS011;44459;43.522;24.470;2023-11-18T03:51:29;0.20;;;0.20;;
57571;SDS011;44459;43.522;24.470;2023-11-18T03:53:55;0.63;;;0.40;;
57571;SDS011;44459;43.522;24.470;2023-11-18T03:56:20;0.20;;;0.10;;
57571;SDS011;44459;43.522;24.470;2023-11-18T03:58:47;0.17;;;0.17;;
57571;SDS011;44459;43.522;24.470;2023-11-18T04:01:23;0.65;;;0.40;;
57571;SDS011;44459;43.522;24.470;2023-11-18T04:03:53;0.10;;;0.10;;
57571;SDS011;44459;43.522;24.470;2023-11-18T04:06:19;0.95;;;0.65;;
57571;SDS011;44459;43.522;24.470;2023-11-18T04:08:46;0.15;;;0.15;;
57571;SDS011;44459;43.522;24.470;2023-11-18T04:11:13;0.20;;;0.20;;
57571;SDS011;44459;43.522;24.470;2023-11-18T04:13:39;0.20;;;0.20;;
57571;SDS011;44459;43.522;24.470;2023-11-18T04:16:11;0.10;;;0.10;;
57571;SDS011;44459;43.522;24.470;2023-11-18T04:18:38;0.20;;;0.20;;
57571;SDS011;44459;43.522;24.470;2023-11-18T04:21:05;0.10;;;0.10;;
57571;SDS011;44459;43.522;24.470;2023-11-18T04:23:32;0.40;;;0.40;;
57571;SDS011;44459;43.522;24.470;2023-11-18T04:25:59;0.80;;;0.60;;
57571;SDS011;44459;43.522;24.470;2023-11-18T04:28:26;0.30;;;0.30;;
57571;SDS011;44459;43.522;24.470;2023-11-18T04:30:52;0.30;;;0.30;;
57571;SDS011;44459;43.522;24.470;2023-11-18T04:33:18;0.43;;;0.43;;
57571;SDS011;44459;43.522;24.470;2023-11-18T04:35:45;0.65;;;0.32;;
57571;SDS011;44459;43.522;24.470;2023-11-18T04:38:11;0.70;;;0.70;;
57571;SDS011;44459;43.522;24.470;2023-11-18T04:40:37;0.28;;;0.28;;
57571;SDS011;44459;43.522;24.470;2023-11-18T04:43:03;0.77;;;0.50;;
57571;SDS011;44459;43.522;24.470;2023-11-18T04:45:30;1.23;;;0.98;;
57571;SDS011;44459;43.522;24.470;2023-11-18T04:47:56;0.93;;;0.63;;
57571;SDS011;44459;43.522;24.470;2023-11-18T04:50:21;0.40;;;0.40;;
57571;SDS011;44459;43.522;24.470;2023-11-18T04:52:47;0.43;;;0.20;;
57571;SDS011;44459;43.522;24.470;2023-11-18T04:55:12;1.25;;;0.90;;
57571;SDS011;44459;43.522;24.470;2023-11-18T04:57:41;0.68;;;0.68;;
57571;SDS011;44459;43.522;24.470;2023-11-18T05:00:06;0.10;;;0.10;;
57571;SDS011;44459;43.522;24.470;2023-11-18T05:02:38;0.77;;;0.30;;
57571;SDS011;44459;43.522;24.470;2023-11-18T05:05:04;0.40;;;0.40;;
57571;SDS011;44459;43.522;24.470;2023-11-18T05:07:31;0.40;;;0.40;;
57571;SDS011;44459;43.522;24.470;2023-11-18T05:09:57;0.10;;;0.10;;
57571;SDS011;44459;43.522;24.470;2023-11-18T05:12:22;0.40;;;0.40;;
57571;SDS011;44459;43.522;24.470;2023-11-18T05:14:48;0.50;;;0.50;;
57571;SDS011;44459;43.522;24.470;2023-11-18T05:17:17;1.25;;;1.02;;
57571;SDS011;44459;43.522;24.470;2023-11-18T05:19:43;0.65;;;0.55;;
57571;SDS011;44459;43.522;24.470;2023-11-18T05:22:08;0.20;;;0.20;;
57571;SDS011;44459;43.522;24.470;2023-11-18T05:24:34;0.73;;;0.50;;
57571;SDS011;44459;43.522;24.470;2023-11-18T05:26:59;0.77;;;0.47;;
57571;SDS011;44459;43.522;24.470;2023-11-18T05:29:29;0.55;;;0.32;;
57571;SDS011;44459;43.522;24.470;2023-11-18T05:31:55;0.30;;;0.30;;
57571;SDS011;44459;43.522;24.470;2023-11-18T05:34:20;0.30;;;0.30;;
57571;SDS011;44459;43.522;24.470;2023-11-18T05:36:46;0.30;;;0.30;;
57571;SDS011;44459;43.522;24.470;2023-11-18T05:39:13;0.20;;;0.20;;
57571;SDS011;44459;43.522;24.470;2023-11-18T05:41:40;1.02;;;0.20;;
57571;SDS011;44459;43.522;24.470;2023-11-18T05:44:10;0.15;;;0.15;;
57571;SDS011;44459;43.522;24.470;2023-11-18T05:46:42;1.45;;;0.43;;
57571;SDS011;44459;43.522;24.470;2023-11-18T05:49:11;0.93;;;0.32;;
57571;SDS011;44459;43.522;24.470;2023-11-18T05:51:38;0.25;;;0.25;;
57571;SDS011;44459;43.522;24.470;2023-11-18T05:54:05;0.20;;;0.20;;
57571;SDS011;44459;43.522;24.470;2023-11-18T05:56:31;0.20;;;0.20;;
57571;SDS011;44459;43.522;24.470;2023-11-18T05:58:57;0.45;;;0.32;;
57571;SDS011;44459;43.522;24.470;2023-11-18T06:01:23;0.40;;;0.40;;
57571;SDS011;44459;43.522;24.470;2023-11-18T06:03:52;0.20;;;0.20;;
57571;SDS011;44459;43.522;24.470;2023-11-18T06:06:18;0.10;;;0.10;;
57571;SDS011;44459;43.522;24.470;2023-11-18T06:08:44;0.15;;;0.15;;
57571;SDS011;44459;43.522;24.470;2023-11-18T06:11:13;0.52;;;0.35;;
57571;SDS011;44459;43.522;24.470;2023-11-18T06:13:42;0.57;;;0.40;;
57571;SDS011;44459;43.522;24.470;2023-11-18T06:16:12;0.38;;;0.38;;
57571;SDS011;44459;43.522;24.470;2023-11-18T06:18:44;0.30;;;0.30;;
57571;SDS011;44459;43.522;24.470;2023-11-18T06:21:19;0.10;;;0.10;;
57571;SDS011;44459;43.522;24.470;2023-11-18T06:23:49;0.68;;;0.60;;
57571;SDS011;44459;43.522;24.470;2023-11-18T06:26:15;2.25;;;0.20;;
57571;SDS011;44459;43.522;24.470;2023-11-18T06:28:42;0.40;;;0.40;;
57571;SDS011;44459;43.522;24.470;2023-11-18T06:31:08;0.13;;;0.13;;
57571;SDS011;44459;43.522;24.470;2023-11-18T06:33:44;0.30;;;0.30;;
57571;SDS011;44459;43.522;24.470;2023-11-18T06:38:39;0.30;;;0.30;;
57571;SDS011;44459;43.522;24.470;2023-11-18T06:41:05;0.25;;;0.25;;
57571;SDS011;44459;43.522;24.470;2023-11-18T06:43:35;0.00;;;0.00;;
57571;SDS011;44459;43.522;24.470;2023-11-18T06:46:16;0.50;;;0.50;;
57571;SDS011;44459;43.522;24.470;2023-11-18T06:48:49;0.55;;;0.43;;
57571;SDS011;44459;43.522;24.470;2023-11-18T06:51:19;1.48;;;0.50;;
57571;SDS011;44459;43.522;24.470;2023-11-18T06:53:51;0.90;;;0.90;;
57571;SDS011;44459;43.522;24.470;2023-11-18T06:56:17;0.80;;;0.40;;
57571;SDS011;44459;43.522;24.470;2023-11-18T06:58:43;2.22;;;1.77;;
57571;SDS011;44459;43.522;24.470;2023-11-18T07:01:09;0.68;;;0.68;;
57571;SDS011;44459;43.522;24.470;2023-11-18T07:06:04;0.40;;;0.40;;
57571;SDS011;44459;43.522;24.470;2023-11-18T07:08:31;0.32;;;0.30;;
57571;SDS011;44459;43.522;24.470;2023-11-18T07:10:57;0.47;;;0.45;;
57571;SDS011;44459;43.522;24.470;2023-11-18T07:13:23;1.27;;;0.55;;
57571;SDS011;44459;43.522;24.470;2023-11-18T07:15:49;2.03;;;1.48;;
57571;SDS011;44459;43.522;24.470;2023-11-18T07:18:15;0.40;;;0.40;;
57571;SDS011;44459;43.522;24.470;2023-11-18T07:20:41;0.43;;;0.43;;
57571;SDS011;44459;43.522;24.470;2023-11-18T07:23:07;0.45;;;0.45;;
57571;SDS011;44459;43.522;24.470;2023-11-18T07:25:33;0.85;;;0.55;;
57571;SDS011;44459;43.522;24.470;2023-11-18T07:27:59;1.70;;;0.88;;
57571;SDS011;44459;43.522;24.470;2023-11-18T07:30:25;1.88;;;0.52;;
57571;SDS011;44459;43.522;24.470;2023-11-18T07:32:51;1.38;;;0.68;;
57571;SDS011;44459;43.522;24.470;2023-11-18T07:35:16;0.35;;;0.20;;
57571;SDS011;44459;43.522;24.470;2023-11-18T07:37:43;0.70;;;0.40;;
57571;SDS011;44459;43.522;24.470;2023-11-18T07:40:08;0.47;;;0.47;;
57571;SDS011;44459;43.522;24.470;2023-11-18T07:42:37;1.23;;;0.45;;
57571;SDS011;44459;43.522;24.470;2023-11-18T07:45:03;0.20;;;0.20;;
57571;SDS011;44459;43.522;24.470;2023-11-18T07:47:42;0.68;;;0.60;;
57571;SDS011;44459;43.522;24.470;2023-11-18T07:50:09;5.97;;;0.63;;
57571;SDS011;44459;43.522;24.470;2023-11-18T07:52:37;0.52;;;0.38;;
57571;SDS011;44459;43.522;24.470;2023-11-18T07:55:03;0.20;;;0.20;;
57571;SDS011;44459;43.522;24.470;2023-11-18T07:57:29;0.32;;;0.32;;
57571;SDS011;44459;43.522;24.470;2023-11-18T07:59:55;1.45;;;0.20;;
57571;SDS011;44459;43.522;24.470;2023-11-18T08:02:20;0.20;;;0.20;;
57571;SDS011;44459;43.522;24.470;2023-11-18T08:04:46;1.35;;;0.38;;
57571;SDS011;44459;43.522;24.470;2023-11-18T08:07:11;0.35;;;0.28;;
57571;SDS011;44459;43.522;24.470;2023-11-18T08:09:36;0.75;;;0.45;;
57571;SDS011;44459;43.522;24.470;2023-11-18T08:12:04;0.20;;;0.20;;
57571;SDS011;44459;43.522;24.470;2023-11-18T08:14:34;0.40;;;0.35;;
57571;SDS011;44459;43.522;24.470;2023-11-18T08:16:59;0.20;;;0.20;;
57571;SDS011;44459;43.522;24.470;2023-11-18T08:19:25;0.43;;;0.40;;
57571;SDS011;44459;43.522;24.470;2023-11-18T08:21:50;0.20;;;0.20;;
57571;SDS011;44459;43.522;24.470;2023-11-18T08:24:17;1.05;;;0.30;;
57571;SDS011;44459;43.522;24.470;2023-11-18T08:26:42;0.93;;;0.50;;
57571;SDS011;44459;43.522;24.470;2023-11-18T08:29:08;2.20;;;0.40;;
57571;SDS011;44459;43.522;24.470;2023-11-18T08:31:33;0.88;;;0.40;;
57571;SDS011;44459;43.522;24.470;2023-11-18T08:33:59;0.47;;;0.47;;
57571;SDS011;44459;43.522;24.470;2023-11-18T08:36:25;0.30;;;0.30;;
57571;SDS011;44459;43.522;24.470;2023-11-18T08:38:57;0.60;;;0.30;;
57571;SDS011;44459;43.522;24.470;2023-11-18T08:41:23;0.30;;;0.30;;
57571;SDS011;44459;43.522;24.470;2023-11-18T08:43:48;0.30;;;0.30;;
57571;SDS011;44459;43.522;24.470;2023-11-18T08:46:14;1.08;;;0.40;;
57571;SDS011;44459;43.522;24.470;2023-11-18T08:48:40;0.30;;;0.28;;
57571;SDS011;44459;43.522;24.470;2023-11-18T08:51:06;0.20;;;0.20;;
57571;SDS011;44459;43.522;24.470;2023-11-18T08:53:33;0.63;;;0.40;;
57571;SDS011;44459;43.522;24.470;2023-11-18T08:56:07;2.28;;;1.02;;
57571;SDS011;44459;43.522;24.470;2023-11-18T08:58:38;1.90;;;0.95;;
57571;SDS011;44459;43.522;24.470;2023-11-18T09:01:05;1.27;;;0.63;;
57571;SDS011;44459;43.522;24.470;2023-11-18T09:03:38;0.70;;;0.30;;
57571;SDS011;44459;43.522;24.470;2023-11-18T09:06:08;0.35;;;0.30;;
57571;SDS011;44459;43.522;24.470;2023-11-18T09:08:50;0.52;;;0.50;;
57571;SDS011;44459;43.522;24.470;2023-11-18T09:11:21;0.50;;;0.45;;
57571;SDS011;44459;43.522;24.470;2023-11-18T09:13:48;0.60;;;0.28;;
57571;SDS011;44459;43.522;24.470;2023-11-18T09:16:18;1.48;;;0.30;;
57571;SDS011;44459;43.522;24.470;2023-11-18T09:18:47;0.60;;;0.40;;
57571;SDS011;44459;43.522;24.470;2023-11-18T09:21:13;1.88;;;0.68;;
57571;SDS011;44459;43.522;24.470;2023-11-18T09:23:39;0.73;;;0.60;;
57571;SDS011;44459;43.522;24.470;2023-11-18T09:26:06;3.45;;;1.50;;
57571;SDS011;44459;43.522;24.470;2023-11-18T09:28:32;0.30;;;0.30;;
57571;SDS011;44459;43.522;24.470;2023-11-18T09:31:00;0.22;;;0.22;;
57571;SDS011;44459;43.522;24.470;2023-11-18T09:33:29;0.82;;;0.70;;
57571;SDS011;44459;43.522;24.470;2023-11-18T09:38:38;0.38;;;0.38;;
57571;SDS011;44459;43.522;24.470;2023-11-18T09:41:08;0.45;;;0.43;;
57571;SDS011;44459;43.522;24.470;2023-11-18T09:43:38;2.08;;;0.50;;
57571;SDS011;44459;43.522;24.470;2023-11-18T09:46:26;0.55;;;0.55;;
57571;SDS011;44459;43.522;24.470;2023-11-18T09:51:27;0.85;;;0.65;;
57571;SDS011;44459;43.522;24.470;2023-11-18T09:54:01;1.58;;;1.40;;
57571;SDS011;44459;43.522;24.470;2023-11-18T09:59:53;0.55;;;0.50;;
57571;SDS011;44459;43.522;24.470;2023-11-18T10:02:04;0.40;;;0.40;;
57571;SDS011;44459;43.522;24.470;2023-11-18T10:04:31;0.63;;;0.57;;
57571;SDS011;44459;43.522;24.470;2023-11-18T10:06:58;2.40;;;0.40;;
57571;SDS011;44459;43.522;24.470;2023-11-18T10:09:27;0.15;;;0.15;;
57571;SDS011;44459;43.522;24.470;2023-11-18T10:12:13;0.30;;;0.30;;
57571;SDS011;44459;43.522;24.470;2023-11-18T10:14:42;3.33;;;0.40;;
57571;SDS011;44459;43.522;24.470;2023-11-18T10:17:10;0.50;;;0.50;;
57571;SDS011;44459;43.522;24.470;2023-11-18T10:19:55;0.50;;;0.50;;
57571;SDS011;44459;43.522;24.470;2023-11-18T10:22:22;0.38;;;0.38;;
57571;SDS011;44459;43.522;24.470;2023-11-18T10:24:49;7.05;;;0.75;;
57571;SDS011;44459;43.522;24.470;2023-11-18T10:27:19;0.30;;;0.30;;
57571;SDS011;44459;43.522;24.470;2023-11-18T10:29:47;3.80;;;0.70;;
57571;SDS011;44459;43.522;24.470;2023-11-18T10:32:14;0.20;;;0.20;;
57571;SDS011;44459;43.522;24.470;2023-11-18T10:34:45;8.02;;;0.90;;
57571;SDS011;44459;43.522;24.470;2023-11-18T10:37:10;0.88;;;0.30;;
57571;SDS011;44459;43.522;24.470;2023-11-18T10:39:36;3.30;;;0.75;;
57571;SDS011;44459;43.522;24.470;2023-11-18T10:42:02;0.80;;;0.80;;
57571;SDS011;44459;43.522;24.470;2023-11-18T10:44:28;1.10;;;0.35;;
57571;SDS011;44459;43.522;24.470;2023-11-18T10:46:55;1.02;;;0.70;;
57571;SDS011;44459;43.522;24.470;2023-11-18T10:52:02;0.95;;;0.63;;
57571;SDS011;44459;43.522;24.470;2023-11-18T10:54:32;0.35;;;0.35;;
57571;SDS011;44459;43.522;24.470;2023-11-18T10:56:59;0.70;;;0.52;;
57571;SDS011;44459;43.522;24.470;2023-11-18T10:59:32;1.30;;;0.70;;
57571;SDS011;44459;43.522;24.470;2023-11-18T11:01:58;0.85;;;0.77;;
57571;SDS011;44459;43.522;24.470;2023-11-18T11:04:23;2.33;;;0.90;;
57571;SDS011;44459;43.522;24.470;2023-11-18T11:06:49;0.77;;;0.70;;
57571;SDS011;44459;43.522;24.470;2023-11-18T11:09:24;2.90;;;1.00;;
57571;SDS011;44459;43.522;24.470;2023-11-18T11:11:56;0.40;;;0.40;;
57571;SDS011;44459;43.522;24.470;2023-11-18T11:14:32;0.30;;;0.30;;
57571;SDS011;44459;43.522;24.470;2023-11-18T11:17:13;0.65;;;0.65;;
57571;SDS011;44459;43.522;24.470;2023-11-18T11:19:50;0.57;;;0.40;;
57571;SDS011;44459;43.522;24.470;2023-11-18T11:22:38;1.15;;;0.90;;
57571;SDS011;44459;43.522;24.470;2023-11-18T11:28:10;1.65;;;0.90;;
57571;SDS011;44459;43.522;24.470;2023-11-18T11:35:40;0.73;;;0.68;;
57571;SDS011;44459;43.522;24.470;2023-11-18T11:38:13;0.40;;;0.40;;
57571;SDS011;44459;43.522;24.470;2023-11-18T11:40:41;0.60;;;0.60;;
57571;SDS011;44459;43.522;24.470;2023-11-18T11:43:09;1.10;;;0.68;;
57571;SDS011;44459;43.522;24.470;2023-11-18T11:45:46;1.20;;;0.90;;
57571;SDS011;44459;43.522;24.470;2023-11-18T11:48:16;3.47;;;0.95;;
57571;SDS011;44459;43.522;24.470;2023-11-18T11:53:30;1.50;;;0.90;;
57571;SDS011;44459;43.522;24.470;2023-11-18T11:56:01;0.45;;;0.45;;
57571;SDS011;44459;43.522;24.470;2023-11-18T11:58:38;2.85;;;1.20;;
57571;SDS011;44459;43.522;24.470;2023-11-18T12:01:26;1.55;;;0.95;;
57571;SDS011;44459;43.522;24.470;2023-11-18T12:04:00;1.70;;;1.02;;
57571;SDS011;44459;43.522;24.470;2023-11-18T12:06:34;1.23;;;1.13;;
57571;SDS011;44459;43.522;24.470;2023-11-18T12:09:08;1.67;;;0.88;;
57571;SDS011;44459;43.522;24.470;2023-11-18T12:11:37;1.88;;;0.80;;
57571;SDS011;44459;43.522;24.470;2023-11-18T12:14:11;3.25;;;0.60;;
57571;SDS011;44459;43.522;24.470;2023-11-18T12:19:37;0.45;;;0.45;;
57571;SDS011;44459;43.522;24.470;2023-11-18T12:22:16;1.17;;;0.80;;
57571;SDS011;44459;43.522;24.470;2023-11-18T12:32:59;0.50;;;0.50;;
57571;SDS011;44459;43.522;24.470;2023-11-18T12:35:35;0.57;;;0.57;;
57571;SDS011;44459;43.522;24.470;2023-11-18T12:40:52;0.77;;;0.52;;
57571;SDS011;44459;43.522;24.470;2023-11-18T12:48:57;1.25;;;0.98;;
57571;SDS011;44459;43.522;24.470;2023-11-18T12:51:25;0.80;;;0.60;;
57571;SDS011;44459;43.522;24.470;2023-11-18T12:53:51;2.25;;;1.00;;
57571;SDS011;44459;43.522;24.470;2023-11-18T12:56:19;0.50;;;0.50;;
57571;SDS011;44459;43.522;24.470;2023-11-18T12:58:45;1.20;;;0.80;;
57571;SDS011;44459;43.522;24.470;2023-11-18T13:01:12;1.35;;;0.95;;
57571;SDS011;44459;43.522;24.470;2023-11-18T13:03:42;1.88;;;0.80;;
57571;SDS011;44459;43.522;24.470;2023-11-18T13:06:09;0.93;;;0.80;;
57571;SDS011;44459;43.522;24.470;2023-11-18T13:08:37;2.38;;;0.70;;
57571;SDS011;44459;43.522;24.470;2023-11-18T13:11:03;1.63;;;1.38;;
57571;SDS011;44459;43.522;24.470;2023-11-18T13:13:38;2.03;;;1.52;;
57571;SDS011;44459;43.522;24.470;2023-11-18T13:16:05;2.03;;;1.48;;
57571;SDS011;44459;43.522;24.470;2023-11-18T13:18:45;1.48;;;0.90;;
57571;SDS011;44459;43.522;24.470;2023-11-18T13:21:18;1.50;;;1.27;;
57571;SDS011;44459;43.522;24.470;2023-11-18T13:23:46;1.27;;;1.17;;
57571;SDS011;44459;43.522;24.470;2023-11-18T13:26:13;1.27;;;1.15;;
57571;SDS011;44459;43.522;24.470;2023-11-18T13:28:39;1.35;;;1.10;;
57571;SDS011;44459;43.522;24.470;2023-11-18T13:31:05;0.68;;;0.50;;
57571;SDS011;44459;43.522;24.470;2023-11-18T13:33:43;1.48;;;0.88;;
57571;SDS011;44459;43.522;24.470;2023-11-18T13:36:11;1.40;;;0.60;;
57571;SDS011;44459;43.522;24.470;2023-11-18T13:38:37;1.23;;;0.70;;
57571;SDS011;44459;43.522;24.470;2023-11-18T13:41:03;1.73;;;1.00;;
57571;SDS011;44459;43.522;24.470;2023-11-18T13:43:44;1.50;;;1.05;;
57571;SDS011;44459;43.522;24.470;2023-11-18T13:46:17;2.38;;;0.85;;
57571;SDS011;44459;43.522;24.470;2023-11-18T13:48:49;1.20;;;1.10;;
57571;SDS011;44459;43.522;24.470;2023-11-18T13:51:15;1.38;;;1.00;;
57571;SDS011;44459;43.522;24.470;2023-11-18T13:53:41;1.85;;;0.98;;
57571;SDS011;44459;43.522;24.470;2023-11-18T13:56:12;1.70;;;0.93;;
57571;SDS011;44459;43.522;24.470;2023-11-18T13:58:38;2.35;;;0.57;;
57571;SDS011;44459;43.522;24.470;2023-11-18T14:01:05;0.70;;;0.70;;
57571;SDS011;44459;43.522;24.470;2023-11-18T14:03:33;1.05;;;0.85;;
57571;SDS011;44459;43.522;24.470;2023-11-18T14:06:02;0.88;;;0.82;;
57571;SDS011;44459;43.522;24.470;2023-11-18T14:08:28;2.10;;;1.38;;
57571;SDS011;44459;43.522;24.470;2023-11-18T14:10:54;9.30;;;1.08;;
57571;SDS011;44459;43.522;24.470;2023-11-18T14:13:20;1.98;;;0.75;;
57571;SDS011;44459;43.522;24.470;2023-11-18T14:15:47;1.33;;;0.70;;
57571;SDS011;44459;43.522;24.470;2023-11-18T14:18:13;1.85;;;1.13;;
57571;SDS011;44459;43.522;24.470;2023-11-18T14:20:39;0.95;;;0.77;;
57571;SDS011;44459;43.522;24.470;2023-11-18T14:23:04;1.15;;;0.93;;
57571;SDS011;44459;43.522;24.470;2023-11-18T14:25:31;1.88;;;1.33;;
57571;SDS011;44459;43.522;24.470;2023-11-18T14:27:57;2.75;;;1.10;;
57571;SDS011;44459;43.522;24.470;2023-11-18T14:30:23;3.17;;;2.05;;
57571;SDS011;44459;43.522;24.470;2023-11-18T14:32:53;1.75;;;1.30;;
57571;SDS011;44459;43.522;24.470;2023-11-18T14:35:19;7.30;;;2.27;;
57571;SDS011;44459;43.522;24.470;2023-11-18T14:37:45;2.45;;;1.60;;
57571;SDS011;44459;43.522;24.470;2023-11-18T14:40:11;2.42;;;1.50;;
57571;SDS011;44459;43.522;24.470;2023-11-18T14:42:46;1.52;;;1.25;;
57571;SDS011;44459;43.522;24.470;2023-11-18T14:45:13;2.70;;;1.30;;
57571;SDS011;44459;43.522;24.470;2023-11-18T14:47:39;1.45;;;0.90;;
57571;SDS011;44459;43.522;24.470;2023-11-18T14:50:06;2.47;;;1.85;;
57571;SDS011;44459;43.522;24.470;2023-11-18T14:52:40;1.50;;;1.40;;
57571;SDS011;44459;43.522;24.470;2023-11-18T14:55:07;2.25;;;1.48;;
57571;SDS011;44459;43.522;24.470;2023-11-18T14:57:38;3.13;;;2.55;;
57571;SDS011;44459;43.522;24.470;2023-11-18T15:00:04;0.60;;;0.60;;
57571;SDS011;44459;43.522;24.470;2023-11-18T15:02:43;3.00;;;1.33;;
57571;SDS011;44459;43.522;24.470;2023-11-18T15:05:09;2.55;;;1.75;;
57571;SDS011;44459;43.522;24.470;2023-11-18T15:07:34;1.17;;;1.05;;
57571;SDS011;44459;43.522;24.470;2023-11-18T15:10:00;3.33;;;2.15;;
57571;SDS011;44459;43.522;24.470;2023-11-18T15:12:25;6.13;;;2.60;;
57571;SDS011;44459;43.522;24.470;2023-11-18T15:14:51;3.83;;;2.55;;
57571;SDS011;44459;43.522;24.470;2023-11-18T15:17:16;2.83;;;1.45;;
57571;SDS011;44459;43.522;24.470;2023-11-18T15:19:42;1.95;;;1.42;;
57571;SDS011;44459;43.522;24.470;2023-11-18T15:22:07;5.32;;;1.52;;
57571;SDS011;44459;43.522;24.470;2023-11-18T15:24:33;1.45;;;1.35;;
57571;SDS011;44459;43.522;24.470;2023-11-18T15:26:58;2.78;;;1.25;;
57571;SDS011;44459;43.522;24.470;2023-11-18T15:29:26;2.80;;;2.13;;
57571;SDS011;44459;43.522;24.470;2023-11-18T15:31:58;0.80;;;0.80;;
57571;SDS011;44459;43.522;24.470;2023-11-18T15:34:23;1.15;;;1.05;;
57571;SDS011;44459;43.522;24.470;2023-11-18T15:36:56;2.20;;;1.60;;